createdAt,value
2022-09-15T00:01:05.051Z,66.10
2022-09-15T00:03:31.701Z,66.20
2022-09-15T00:05:58.455Z,66.20
2022-09-15T00:08:25.598Z,66.20
2022-09-15T00:10:56.154Z,66.20
2022-09-15T00:13:23.561Z,66.30
2022-09-15T00:15:50.670Z,66.30
2022-09-15T00:18:17.741Z,66.40
2022-09-15T00:20:45.735Z,66.20
2022-09-15T00:23:15.070Z,66.10
2022-09-15T00:25:47.771Z,66.20
2022-09-15T00:28:15.978Z,66.20
2022-09-15T00:30:44.963Z,66.10
2022-09-15T00:33:13.603Z,66.10
2022-09-15T00:35:42.774Z,66.70
2022-09-15T00:38:10.986Z,66.00
2022-09-15T00:40:45.162Z,66.30
2022-09-15T00:43:13.285Z,65.90
2022-09-15T00:45:40.800Z,65.90
2022-09-15T00:48:12.601Z,66.00
2022-09-15T00:50:42.106Z,66.10
2022-09-15T00:53:11.194Z,66.10
2022-09-15T00:55:47.926Z,66.00
2022-09-15T00:58:25.745Z,65.90
2022-09-15T01:00:58.828Z,65.80
2022-09-15T01:03:27.913Z,65.80
2022-09-15T01:06:09.030Z,65.80
2022-09-15T01:09:07.901Z,65.90
2022-09-15T01:11:35.552Z,66.10
2022-09-15T01:14:02.472Z,65.80
2022-09-15T01:16:59.263Z,65.80
2022-09-15T01:19:52.416Z,65.80
2022-09-15T01:22:35.936Z,65.80
2022-09-15T01:25:27.573Z,65.80
2022-09-15T01:28:12.774Z,65.60
2022-09-15T01:31:01.717Z,65.50
2022-09-15T01:33:37.744Z,64.70
2022-09-15T01:36:44.996Z,64.80
2022-09-15T01:39:20.226Z,64.50
2022-09-15T01:41:54.258Z,64.40
2022-09-15T01:44:38.335Z,64.30
2022-09-15T01:47:11.929Z,63.70
2022-09-15T01:49:49.899Z,63.00
2022-09-15T01:52:19.321Z,62.40
2022-09-15T01:54:49.230Z,62.30
2022-09-15T01:57:17.379Z,61.90
2022-09-15T01:59:44.591Z,61.80
2022-09-15T02:02:18.049Z,61.80
2022-09-15T02:04:51.734Z,61.60
2022-09-15T02:07:45.006Z,61.60
2022-09-15T02:10:19.674Z,61.40
2022-09-15T02:13:07.009Z,61.60
2022-09-15T02:15:47.100Z,61.10
2022-09-15T02:18:22.760Z,61.50
2022-09-15T02:21:03.774Z,61.50
2022-09-15T02:23:35.410Z,61.00
2022-09-15T02:26:08.368Z,61.30
2022-09-15T02:28:38.749Z,61.50
2022-09-15T02:31:08.596Z,61.80
2022-09-15T02:33:44.213Z,61.90
2022-09-15T02:36:16.491Z,61.80
2022-09-15T02:38:49.202Z,62.00
2022-09-15T02:41:17.153Z,61.90
2022-09-15T02:43:49.254Z,61.80
2022-09-15T02:46:18.822Z,61.60
2022-09-15T02:48:45.505Z,61.60
2022-09-15T02:51:12.677Z,61.60
2022-09-15T02:53:39.543Z,61.80
2022-09-15T02:56:06.628Z,61.90
2022-09-15T02:58:34.198Z,62.10
2022-09-15T03:01:05.792Z,62.20
2022-09-15T03:03:33.514Z,62.20
2022-09-15T03:06:16.323Z,62.30
2022-09-15T03:08:51.916Z,62.30
2022-09-15T03:11:21.609Z,62.20
2022-09-15T03:13:49.306Z,62.30
2022-09-15T03:16:16.566Z,62.30
2022-09-15T03:18:43.296Z,62.30
2022-09-15T03:21:13.176Z,62.40
2022-09-15T03:23:41.264Z,62.50
2022-09-15T03:26:09.423Z,62.60
2022-09-15T03:28:37.802Z,62.70
2022-09-15T03:31:06.066Z,62.90
2022-09-15T03:33:33.118Z,63.10
2022-09-15T03:36:00.041Z,63.20
2022-09-15T03:38:27.061Z,63.30
2022-09-15T03:41:01.738Z,63.20
2022-09-15T03:43:30.233Z,63.40
2022-09-15T03:45:57.019Z,63.30
2022-09-15T03:48:24.624Z,63.40
2022-09-15T03:50:51.582Z,63.30
2022-09-15T03:53:19.177Z,63.20
2022-09-15T03:55:46.577Z,63.30
2022-09-15T03:58:13.494Z,63.20
2022-09-15T04:00:41.386Z,63.20
2022-09-15T04:03:08.977Z,63.20
2022-09-15T04:05:36.203Z,63.00
2022-09-15T04:08:03.485Z,62.70
2022-09-15T04:10:30.796Z,62.50
2022-09-15T04:12:57.749Z,62.30
2022-09-15T04:15:24.815Z,62.10
2022-09-15T04:17:52.002Z,61.90
2022-09-15T04:20:18.962Z,61.80
2022-09-15T04:22:45.694Z,61.80
2022-09-15T04:25:12.495Z,61.70
2022-09-15T04:27:39.282Z,61.80
2022-09-15T04:30:07.840Z,61.70
2022-09-15T04:32:35.694Z,61.80
2022-09-15T04:35:04.083Z,61.90
2022-09-15T04:37:31.546Z,62.00
2022-09-15T04:39:58.525Z,61.90
2022-09-15T04:42:25.866Z,61.90
2022-09-15T04:44:52.547Z,61.80
2022-09-15T04:47:19.508Z,61.70
2022-09-15T04:49:46.208Z,61.90
2022-09-15T04:52:12.949Z,62.10
2022-09-15T04:54:39.668Z,62.30
2022-09-15T04:57:06.899Z,62.30
2022-09-15T04:59:33.780Z,62.50
2022-09-15T05:02:00.670Z,62.60
2022-09-15T05:04:27.350Z,62.70
2022-09-15T05:06:54.108Z,62.80
2022-09-15T05:09:20.805Z,62.90
2022-09-15T05:11:47.453Z,63.00
2022-09-15T05:14:14.257Z,63.10
2022-09-15T05:16:41.029Z,63.20
2022-09-15T05:19:07.782Z,63.20
2022-09-15T05:21:34.388Z,63.40
2022-09-15T05:24:01.496Z,63.60
2022-09-15T05:26:29.414Z,63.70
2022-09-15T05:28:57.116Z,63.90
2022-09-15T05:31:30.658Z,64.00
2022-09-15T05:33:59.777Z,64.30
2022-09-15T05:36:26.867Z,64.30
2022-09-15T05:38:56.343Z,64.30
2022-09-15T05:41:24.281Z,64.30
2022-09-15T05:43:51.336Z,64.20
2022-09-15T05:46:19.157Z,64.00
2022-09-15T05:48:46.691Z,63.90
2022-09-15T05:51:13.505Z,63.80
2022-09-15T05:53:40.341Z,63.70
2022-09-15T05:56:11.876Z,63.60
2022-09-15T05:58:40.599Z,63.50
2022-09-15T06:01:09.911Z,63.50
2022-09-15T06:03:36.773Z,63.60
2022-09-15T06:06:06.421Z,63.70
2022-09-15T06:08:43.903Z,63.70
2022-09-15T06:11:16.762Z,63.60
2022-09-15T06:13:44.391Z,63.80
2022-09-15T06:16:13.766Z,63.90
2022-09-15T06:18:41.843Z,64.60
2022-09-15T06:21:11.397Z,64.00
2022-09-15T06:23:38.924Z,63.90
2022-09-15T06:26:07.979Z,63.80
2022-09-15T06:28:35.006Z,63.60
2022-09-15T06:31:01.621Z,63.60
2022-09-15T06:33:28.450Z,63.60
2022-09-15T06:35:55.388Z,63.70
2022-09-15T06:38:22.148Z,63.70
2022-09-15T06:40:58.853Z,63.70
2022-09-15T06:43:26.190Z,63.50
2022-09-15T06:45:53.070Z,63.60
2022-09-15T06:48:24.887Z,63.60
2022-09-15T06:50:55.944Z,63.50
2022-09-15T06:53:22.840Z,63.50
2022-09-15T06:55:50.033Z,63.60
2022-09-15T06:58:17.034Z,63.60
2022-09-15T07:00:44.586Z,63.80
2022-09-15T07:03:11.418Z,63.90
2022-09-15T07:05:38.475Z,63.90
2022-09-15T07:08:05.139Z,63.80
2022-09-15T07:10:31.957Z,63.70
2022-09-15T07:13:01.182Z,63.50
2022-09-15T07:15:28.010Z,63.40
2022-09-15T07:17:54.659Z,63.40
2022-09-15T07:20:21.624Z,63.20
2022-09-15T07:22:48.381Z,63.20
2022-09-15T07:25:15.127Z,63.00
2022-09-15T07:27:43.559Z,63.20
2022-09-15T07:30:11.802Z,63.40
2022-09-15T07:32:38.438Z,63.40
2022-09-15T07:35:06.130Z,63.60
2022-09-15T07:37:33.302Z,63.70
2022-09-15T07:40:00.247Z,63.80
2022-09-15T07:42:27.025Z,63.90
2022-09-15T07:44:53.671Z,64.20
2022-09-15T07:47:20.570Z,64.30
2022-09-15T07:49:47.258Z,64.60
2022-09-15T07:52:13.970Z,64.70
2022-09-15T07:54:40.598Z,64.40
2022-09-15T07:57:07.391Z,64.20
2022-09-15T07:59:37.196Z,63.80
2022-09-15T08:02:06.225Z,63.50
2022-09-15T08:04:32.968Z,63.30
2022-09-15T08:06:59.710Z,63.10
2022-09-15T08:09:26.322Z,62.70
2022-09-15T08:11:53.027Z,62.40
2022-09-15T08:14:19.889Z,62.00
2022-09-15T08:16:46.543Z,61.90
2022-09-15T08:19:13.222Z,61.80
2022-09-15T08:21:40.274Z,61.80
2022-09-15T08:24:06.976Z,61.30
2022-09-15T08:26:33.638Z,62.10
2022-09-15T08:29:00.841Z,61.60
2022-09-15T08:31:27.854Z,61.80
2022-09-15T08:33:56.445Z,62.20
2022-09-15T08:36:27.571Z,62.80
2022-09-15T08:38:54.488Z,63.10
2022-09-15T08:41:38.826Z,63.10
2022-09-15T08:44:36.762Z,63.00
2022-09-15T08:47:17.425Z,62.90
2022-09-15T08:50:11.552Z,63.20
2022-09-15T08:52:40.542Z,63.00
2022-09-15T08:55:34.973Z,63.10
2022-09-15T08:58:01.781Z,61.80
2022-09-15T09:00:29.457Z,63.10
2022-09-15T09:03:14.885Z,63.40
2022-09-15T09:05:58.881Z,62.70
2022-09-15T09:08:46.802Z,64.50
2022-09-15T09:11:45.714Z,64.00
2022-09-15T09:14:33.831Z,63.20
2022-09-15T09:17:51.392Z,64.40
2022-09-15T09:20:26.584Z,61.50
2022-09-15T09:22:55.014Z,61.50
2022-09-15T09:25:27.700Z,61.20
2022-09-15T09:27:58.000Z,60.70
2022-09-15T09:30:27.644Z,59.50
2022-09-15T09:33:01.007Z,58.20
2022-09-15T09:35:48.924Z,56.90
2022-09-15T09:38:37.644Z,55.60
2022-09-15T09:41:10.862Z,54.50
2022-09-15T09:43:38.101Z,55.90
2022-09-15T09:46:16.356Z,56.10
2022-09-15T09:48:50.199Z,55.10
2022-09-15T09:51:48.009Z,55.80
2022-09-15T09:54:20.485Z,53.90
2022-09-15T09:56:49.613Z,54.70
2022-09-15T09:59:38.942Z,54.10
2022-09-15T10:02:11.594Z,53.30
2022-09-15T10:04:39.788Z,53.70
2022-09-15T10:07:07.541Z,55.00
2022-09-15T10:09:34.781Z,54.90
2022-09-15T10:12:04.158Z,54.50
2022-09-15T10:14:32.822Z,53.90
2022-09-15T10:17:37.424Z,53.40
2022-09-15T10:20:19.203Z,51.60
2022-09-15T10:22:45.884Z,52.50
2022-09-15T10:25:21.358Z,52.70
2022-09-15T10:28:17.572Z,52.10
2022-09-15T10:31:08.286Z,52.00
2022-09-15T10:33:36.353Z,51.80
2022-09-15T10:36:30.054Z,52.10
2022-09-15T10:39:32.333Z,51.70
2022-09-15T10:42:38.136Z,51.50
2022-09-15T10:45:26.291Z,50.90
2022-09-15T10:47:58.254Z,51.10
2022-09-15T10:50:32.150Z,51.50
2022-09-15T10:53:19.397Z,51.20
2022-09-15T10:56:23.906Z,51.60
2022-09-15T10:59:00.727Z,51.10
2022-09-15T11:01:30.457Z,51.30
2022-09-15T11:04:18.773Z,51.60
2022-09-15T11:07:31.234Z,51.60
2022-09-15T11:10:24.426Z,51.70
2022-09-15T11:13:02.322Z,52.60
2022-09-15T11:16:08.136Z,53.70
2022-09-15T11:18:50.540Z,53.80
2022-09-15T11:21:27.100Z,54.60
2022-09-15T11:24:25.772Z,54.60
2022-09-15T11:27:02.290Z,53.70
2022-09-15T11:29:52.717Z,52.90
2022-09-15T11:32:31.828Z,52.30
2022-09-15T11:35:36.393Z,51.60
2022-09-15T11:38:31.240Z,50.80
2022-09-15T11:41:16.836Z,50.70
2022-09-15T11:44:08.814Z,50.20
2022-09-15T11:46:51.622Z,50.70
2022-09-15T11:49:25.309Z,50.80
2022-09-15T11:52:05.925Z,51.00
2022-09-15T11:54:48.749Z,49.80
2022-09-15T11:57:20.442Z,48.80
2022-09-15T12:00:10.466Z,48.20
2022-09-15T12:02:49.069Z,47.80
2022-09-15T12:05:24.150Z,47.00
2022-09-15T12:08:06.668Z,47.40
2022-09-15T12:11:11.696Z,46.30
2022-09-15T12:13:40.977Z,46.40
2022-09-15T12:16:08.725Z,46.90
2022-09-15T12:19:01.433Z,46.70
2022-09-15T12:21:46.746Z,45.40
2022-09-15T12:24:19.285Z,47.20
2022-09-15T12:26:46.653Z,46.50
2022-09-15T12:29:28.640Z,46.90
2022-09-15T12:32:19.892Z,46.20
2022-09-15T12:35:14.197Z,46.00
2022-09-15T12:37:46.555Z,46.20
2022-09-15T12:40:36.815Z,46.10
2022-09-15T12:43:16.329Z,45.70
2022-09-15T12:45:56.782Z,45.10
2022-09-15T12:48:27.595Z,45.80
2022-09-15T12:50:58.505Z,46.70
2022-09-15T12:53:30.092Z,46.20
2022-09-15T12:56:07.524Z,46.20
2022-09-15T12:58:47.822Z,46.00
2022-09-15T13:01:26.700Z,45.70
2022-09-15T13:03:57.763Z,45.20
2022-09-15T13:06:25.393Z,45.60
2022-09-15T13:09:01.467Z,45.10
2022-09-15T13:11:50.983Z,44.00
2022-09-15T13:14:35.807Z,43.30
2022-09-15T13:17:19.962Z,43.30
2022-09-15T13:19:51.115Z,43.20
2022-09-15T13:22:30.947Z,43.80
2022-09-15T13:25:04.025Z,43.00
2022-09-15T13:27:45.839Z,43.20
2022-09-15T13:30:22.216Z,42.90
2022-09-15T13:40:04.959Z,43.10
2022-09-15T13:43:00.563Z,43.50
2022-09-15T13:46:14.781Z,43.70
2022-09-15T13:49:11.274Z,43.90
2022-09-15T13:51:41.374Z,44.20
2022-09-15T13:54:16.920Z,44.70
2022-09-15T13:56:45.461Z,44.80
2022-09-15T13:59:18.703Z,45.00
2022-09-15T14:01:46.254Z,45.00
2022-09-15T14:04:16.953Z,45.40
2022-09-15T14:06:55.933Z,45.50
2022-09-15T14:09:33.102Z,45.60
2022-09-15T14:12:04.635Z,45.90
2022-09-15T14:14:51.357Z,46.10
2022-09-15T14:17:25.256Z,46.40
2022-09-15T14:19:54.121Z,46.40
2022-09-15T14:22:20.791Z,46.50
2022-09-15T14:24:49.932Z,46.70
2022-09-15T14:27:22.268Z,46.90
2022-09-15T14:29:54.300Z,46.90
2022-09-15T14:32:21.845Z,47.00
2022-09-15T14:34:49.161Z,47.20
2022-09-15T14:37:28.437Z,47.20
2022-09-15T14:39:58.122Z,47.00
2022-09-15T14:42:30.439Z,47.00
2022-09-15T14:48:01.068Z,47.00
2022-09-15T14:50:32.509Z,47.00
2022-09-15T14:53:13.522Z,47.00
2022-09-15T14:55:52.091Z,46.90
2022-09-15T14:58:30.205Z,46.70
2022-09-15T15:01:33.333Z,46.90
2022-09-15T15:04:09.780Z,47.00
2022-09-15T15:06:53.502Z,47.10
2022-09-15T15:09:32.112Z,47.20
2022-09-15T15:12:04.285Z,47.30
2022-09-15T15:14:30.996Z,47.30
2022-09-15T15:17:07.999Z,47.40
2022-09-15T15:19:41.089Z,47.40
2022-09-15T15:22:13.924Z,47.50
2022-09-15T15:24:45.937Z,47.50
2022-09-15T15:27:34.921Z,47.50
2022-09-15T15:30:26.568Z,47.60
2022-09-15T15:32:54.108Z,47.60
2022-09-15T15:35:21.422Z,47.60
2022-09-15T15:37:49.537Z,47.60
2022-09-15T15:40:19.691Z,47.50
2022-09-15T15:42:57.872Z,47.30
2022-09-15T15:45:33.611Z,47.30
2022-09-15T15:48:04.217Z,47.30
2022-09-15T15:50:32.703Z,47.30
2022-09-15T15:53:00.705Z,47.30
2022-09-15T15:55:40.153Z,47.20
2022-09-15T15:58:08.878Z,47.20
2022-09-15T16:00:56.587Z,47.40
2022-09-15T16:03:24.572Z,47.40
2022-09-15T16:05:58.370Z,47.50
2022-09-15T16:08:37.953Z,47.40
2022-09-15T16:11:08.071Z,47.60
2022-09-15T16:13:34.985Z,47.60
2022-09-15T16:16:02.459Z,47.60
2022-09-15T16:18:29.569Z,47.60
2022-09-15T16:20:56.166Z,47.70
2022-09-15T16:23:23.828Z,47.60
2022-09-15T16:26:07.333Z,47.60
2022-09-15T16:28:34.130Z,47.50
2022-09-15T16:31:00.969Z,47.50
2022-09-15T16:33:27.718Z,47.30
2022-09-15T16:36:08.620Z,47.30
2022-09-15T16:38:36.353Z,47.40
2022-09-15T16:41:04.044Z,47.30
2022-09-15T16:43:30.968Z,47.40
2022-09-15T16:45:57.899Z,47.40
2022-09-15T16:48:24.759Z,47.50
2022-09-15T16:53:39.408Z,47.60
2022-09-15T16:56:07.865Z,47.60
2022-09-15T16:58:34.679Z,47.70
2022-09-15T17:01:01.751Z,47.70
2022-09-15T17:03:28.878Z,47.80
2022-09-15T17:06:00.910Z,47.80
2022-09-15T17:08:32.548Z,47.80
2022-09-15T17:11:02.721Z,47.70
2022-09-15T17:13:32.373Z,47.70
2022-09-15T17:16:00.814Z,47.60
2022-09-15T17:18:28.825Z,47.70
2022-09-15T17:20:55.616Z,47.60
2022-09-15T17:23:34.756Z,47.60
2022-09-15T17:26:04.880Z,47.60
2022-09-15T17:28:33.781Z,47.70
2022-09-15T17:31:04.403Z,47.60
2022-09-15T17:33:32.570Z,47.60
2022-09-15T17:36:00.295Z,47.60
2022-09-15T17:38:27.077Z,47.60
2022-09-15T17:40:57.163Z,47.70
2022-09-15T17:43:26.898Z,47.70
2022-09-15T17:45:54.016Z,47.70
2022-09-15T17:48:21.420Z,47.80
2022-09-15T17:50:48.876Z,47.80
2022-09-15T17:53:24.013Z,47.80
2022-09-15T17:55:51.107Z,48.00
2022-09-15T17:58:18.402Z,47.90
2022-09-15T18:00:46.100Z,47.90
2022-09-15T18:03:23.890Z,48.00
2022-09-15T18:05:51.720Z,48.00
2022-09-15T18:08:18.940Z,48.00
2022-09-15T18:10:45.986Z,48.10
2022-09-15T18:13:22.123Z,48.20
2022-09-15T18:15:49.447Z,48.30
2022-09-15T18:18:19.798Z,48.20
2022-09-15T18:20:47.082Z,48.30
2022-09-15T18:23:22.822Z,48.30
2022-09-15T18:25:50.206Z,48.40
2022-09-15T18:28:18.666Z,48.40
2022-09-15T18:30:48.095Z,48.30
2022-09-15T18:33:20.773Z,48.40
2022-09-15T18:35:53.486Z,48.40
2022-09-15T18:38:20.490Z,48.40
2022-09-15T18:40:56.366Z,48.50
2022-09-15T18:43:26.063Z,48.60
2022-09-15T18:45:57.708Z,48.50
2022-09-15T18:48:24.566Z,48.50
2022-09-15T18:50:51.187Z,48.50
2022-09-15T18:53:17.889Z,48.60
2022-09-15T18:55:44.723Z,48.50
2022-09-15T18:58:11.797Z,48.40
2022-09-15T19:00:39.596Z,48.50
2022-09-15T19:03:09.399Z,48.50
2022-09-15T19:05:37.045Z,48.50
2022-09-15T19:08:04.370Z,48.50
2022-09-15T19:10:31.131Z,48.50
2022-09-15T19:12:57.871Z,48.60
2022-09-15T19:15:24.540Z,48.60
2022-09-15T19:17:51.643Z,48.60
2022-09-15T19:20:18.650Z,48.70
2022-09-15T19:22:45.962Z,48.70
2022-09-15T19:25:13.370Z,48.80
2022-09-15T19:27:41.228Z,48.90
2022-09-15T19:30:12.384Z,48.90
2022-09-15T19:32:40.330Z,49.00
2022-09-15T19:35:08.721Z,49.00
2022-09-15T19:37:37.297Z,49.10
2022-09-15T19:40:09.032Z,49.40
2022-09-15T19:42:36.787Z,49.20
2022-09-15T19:45:03.603Z,49.30
2022-09-15T19:47:30.313Z,49.40
2022-09-15T19:49:57.087Z,49.30
2022-09-15T19:52:24.053Z,49.40
2022-09-15T19:54:50.752Z,49.50
2022-09-15T19:57:17.681Z,49.60
2022-09-15T19:59:44.867Z,49.70
2022-09-15T20:02:11.949Z,49.70
2022-09-15T20:04:39.957Z,49.80
2022-09-15T20:07:07.170Z,49.90
2022-09-15T20:09:34.081Z,49.90
2022-09-15T20:12:03.195Z,50.00
2022-09-15T20:14:31.482Z,50.20
2022-09-15T20:17:01.104Z,50.20
2022-09-15T20:19:29.126Z,50.20
2022-09-15T20:21:55.952Z,50.30
2022-09-15T20:24:23.997Z,50.30
2022-09-15T20:26:51.378Z,50.40
2022-09-15T20:29:19.302Z,50.50
2022-09-15T20:31:46.317Z,50.60
2022-09-15T20:34:13.361Z,50.60
2022-09-15T20:36:40.352Z,50.60
2022-09-15T20:39:13.000Z,50.60
2022-09-15T20:41:41.128Z,50.70
2022-09-15T20:44:10.829Z,50.60
2022-09-15T20:46:37.944Z,50.70
2022-09-15T20:49:05.017Z,50.60
2022-09-15T20:51:33.465Z,50.60
2022-09-15T20:54:01.885Z,50.70
2022-09-15T20:56:31.334Z,50.80
2022-09-15T20:58:59.466Z,50.80
2022-09-15T21:01:28.528Z,50.80
2022-09-15T21:03:55.334Z,50.80
2022-09-15T21:06:27.286Z,50.80
2022-09-15T21:08:56.051Z,50.80
2022-09-15T21:11:24.005Z,50.80
2022-09-15T21:13:50.730Z,50.90
2022-09-15T21:16:20.545Z,50.80
2022-09-15T21:18:48.482Z,50.80
2022-09-15T21:21:20.897Z,50.70
2022-09-15T21:23:49.880Z,50.80
2022-09-15T21:26:19.616Z,50.70
2022-09-15T21:28:46.697Z,50.80
2022-09-15T21:31:19.026Z,50.70
2022-09-15T21:33:47.170Z,50.70
2022-09-15T21:36:21.221Z,50.70
2022-09-15T21:38:49.913Z,50.70
2022-09-15T21:41:20.837Z,50.70
2022-09-15T21:43:48.684Z,50.60
2022-09-15T21:46:20.402Z,51.10
2022-09-15T21:48:48.606Z,50.60
2022-09-15T21:51:23.971Z,50.60
2022-09-15T21:53:53.376Z,50.70
2022-09-15T21:56:21.014Z,50.70
2022-09-15T21:58:48.017Z,50.60
2022-09-15T22:01:24.209Z,50.60
2022-09-15T22:03:53.053Z,50.60
2022-09-15T22:06:22.195Z,50.50
2022-09-15T22:08:49.264Z,50.50
2022-09-15T22:11:16.034Z,50.50
2022-09-15T22:13:44.533Z,50.50
2022-09-15T22:16:14.856Z,50.50
2022-09-15T22:18:42.881Z,50.50
2022-09-15T22:21:09.747Z,50.50
2022-09-15T22:23:36.411Z,50.50
2022-09-15T22:26:11.896Z,50.50
2022-09-15T22:28:39.095Z,50.50
2022-09-15T22:31:08.464Z,50.40
2022-09-15T22:33:35.750Z,50.50
2022-09-15T22:36:03.074Z,50.90
2022-09-15T22:38:30.574Z,50.50
2022-09-15T22:41:03.855Z,50.50
2022-09-15T22:43:30.687Z,50.60
2022-09-15T22:45:57.461Z,50.50
2022-09-15T22:48:24.327Z,50.70
2022-09-15T22:50:51.009Z,50.60
2022-09-15T22:53:17.699Z,50.70
2022-09-15T22:55:44.484Z,50.70
2022-09-15T22:58:11.430Z,50.80
2022-09-15T23:00:38.650Z,50.80
2022-09-15T23:03:06.327Z,50.80
2022-09-15T23:05:34.081Z,50.80
2022-09-15T23:08:01.248Z,50.90
2022-09-15T23:10:28.197Z,50.90
2022-09-15T23:12:55.616Z,51.00
2022-09-15T23:15:22.464Z,51.00
2022-09-15T23:17:49.226Z,51.10
2022-09-15T23:20:15.982Z,51.10
2022-09-15T23:22:42.741Z,51.20
2022-09-15T23:25:09.478Z,51.20
2022-09-15T23:27:36.543Z,51.10
2022-09-15T23:30:03.575Z,51.20
2022-09-15T23:32:30.415Z,51.20
2022-09-15T23:34:57.100Z,51.20
2022-09-15T23:37:24.136Z,51.20
2022-09-15T23:39:50.811Z,51.30
2022-09-15T23:42:19.063Z,51.30
2022-09-15T23:44:46.227Z,51.30
2022-09-15T23:47:13.068Z,51.30
2022-09-15T23:49:40.026Z,51.30
2022-09-15T23:52:06.672Z,51.30
2022-09-15T23:54:33.428Z,51.30
2022-09-15T23:57:00.072Z,51.30
2022-09-15T23:59:26.887Z,51.30
